createdAt,value
2022-08-03T00:29:21.465Z,1006.77
2022-08-03T00:30:01.937Z,1006.73
2022-08-03T00:30:42.375Z,1006.77
2022-08-03T00:31:26.497Z,1006.72
2022-08-03T00:32:03.384Z,1006.78
2022-08-03T00:32:45.216Z,1006.74
2022-08-03T00:33:24.381Z,1006.73
2022-08-03T00:34:04.838Z,1006.71
2022-08-03T00:34:57.449Z,1006.66
2022-08-03T00:35:35.142Z,1006.68
2022-08-03T00:36:06.279Z,1006.7
2022-08-03T00:36:46.788Z,1006.67
2022-08-03T00:37:40.502Z,1006.72
2022-08-03T00:38:07.715Z,1006.69
2022-08-03T00:38:48.182Z,1006.69
2022-08-03T00:39:28.633Z,1006.72
2022-08-03T00:40:09.140Z,1006.67
2022-08-03T00:40:49.597Z,1006.72
2022-08-03T00:41:30.122Z,1006.7
2022-08-03T00:42:10.546Z,1006.71
2022-08-03T00:42:51.054Z,1006.71
2022-08-03T00:43:31.511Z,1006.72
2022-08-03T00:44:12.010Z,1006.71
2022-08-03T00:44:52.512Z,1006.71
2022-08-03T00:45:32.950Z,1006.69
2022-08-03T00:46:16.420Z,1006.72
2022-08-03T00:46:53.953Z,1006.71
2022-08-03T00:47:34.419Z,1006.69
2022-08-03T00:48:55.438Z,1006.69
2022-08-03T00:49:35.886Z,1006.66
2022-08-03T00:50:16.281Z,1006.67
2022-08-03T00:50:56.771Z,1006.67
2022-08-03T00:51:37.272Z,1006.65
2022-08-03T00:52:17.873Z,1006.68
2022-08-03T00:52:58.248Z,1006.66
2022-08-03T00:53:38.737Z,1006.6
2022-08-03T00:54:19.213Z,1006.63
2022-08-03T00:54:59.720Z,1006.63
2022-08-03T00:55:40.185Z,1006.65
2022-08-03T00:56:20.620Z,1006.67
2022-08-03T00:57:01.115Z,1006.65
2022-08-03T00:57:41.602Z,1006.65
2022-08-03T00:58:22.102Z,1006.66
2022-08-03T00:59:02.566Z,1006.67
2022-08-03T00:59:43.069Z,1006.65
2022-08-03T01:00:23.544Z,1006.65
2022-08-03T01:01:04.153Z,1006.67
2022-08-03T01:01:44.560Z,1006.64
2022-08-03T01:02:25.000Z,1006.63
2022-08-03T01:03:05.440Z,1006.64
2022-08-03T01:04:26.431Z,1006.63
2022-08-03T01:05:06.927Z,1006.66
2022-08-03T01:05:47.390Z,1006.64
2022-08-03T01:06:27.876Z,1006.63
2022-08-03T01:07:10.628Z,1006.64
2022-08-03T01:07:48.924Z,1006.62
2022-08-03T01:08:29.350Z,1006.62
2022-08-03T01:09:09.856Z,1006.61
2022-08-03T01:09:50.351Z,1006.61
2022-08-03T01:10:31.018Z,1006.61
2022-08-03T01:11:11.381Z,1006.6
2022-08-03T01:12:00.382Z,1006.61
2022-08-03T01:12:32.280Z,1006.58
2022-08-03T01:13:13.919Z,1006.61
2022-08-03T01:14:00.056Z,1006.64
2022-08-03T01:14:33.738Z,1006.61
2022-08-03T01:15:14.219Z,1006.66
2022-08-03T01:15:54.669Z,1006.62
2022-08-03T01:16:35.662Z,1006.63
2022-08-03T01:17:15.641Z,1006.63
2022-08-03T01:17:56.085Z,1006.64
2022-08-03T01:18:36.594Z,1006.63
2022-08-03T01:19:17.082Z,1006.59
2022-08-03T01:19:57.541Z,1006.56
2022-08-03T01:20:38.035Z,1006.61
2022-08-03T01:21:18.487Z,1006.59
2022-08-03T01:21:58.974Z,1006.61
2022-08-03T01:22:39.422Z,1006.59
2022-08-03T01:23:19.909Z,1006.6
2022-08-03T01:24:00.367Z,1006.55
2022-08-03T01:24:40.972Z,1006.57
2022-08-03T01:25:21.356Z,1006.62
2022-08-03T01:26:01.831Z,1006.6
2022-08-03T01:26:42.273Z,1006.6
2022-08-03T01:27:22.750Z,1006.61
2022-08-03T01:28:03.295Z,1006.62
2022-08-03T01:28:43.743Z,1006.57
2022-08-03T01:29:24.240Z,1006.57
2022-08-03T01:30:04.729Z,1006.56
2022-08-03T01:30:45.213Z,1006.56
2022-08-03T01:31:25.664Z,1006.59
2022-08-03T01:32:51.863Z,1006.57
2022-08-03T01:32:51.929Z,1006.59
2022-08-03T01:33:27.105Z,1006.58
2022-08-03T01:34:08.401Z,1006.57
2022-08-03T01:34:48.107Z,1006.57
2022-08-03T01:35:28.547Z,1006.55
2022-08-03T01:36:09.011Z,1006.58
2022-08-03T01:36:49.543Z,1006.53
2022-08-03T01:37:29.998Z,1006.56
2022-08-03T01:38:10.475Z,1006.55
2022-08-03T01:38:51.020Z,1006.56
2022-08-03T01:39:31.458Z,1006.56
2022-08-03T01:40:11.961Z,1006.59
2022-08-03T01:40:52.389Z,1006.5
2022-08-03T01:42:13.595Z,1006.52
2022-08-03T01:42:53.789Z,1006.52
2022-08-03T01:43:55.540Z,1006.52
2022-08-03T01:44:27.076Z,1006.54
2022-08-03T01:44:55.255Z,1006.51
2022-08-03T01:45:35.692Z,1006.48
2022-08-03T01:46:16.170Z,1006.52
2022-08-03T01:46:56.777Z,1006.54
2022-08-03T01:47:37.126Z,1006.49
2022-08-03T01:48:17.602Z,1006.47
2022-08-03T01:48:58.173Z,1006.47
2022-08-03T01:49:38.722Z,1006.49
2022-08-03T01:50:19.042Z,1006.47
2022-08-03T01:50:59.475Z,1006.46
2022-08-03T01:51:57.788Z,1006.49
2022-08-03T01:52:20.617Z,1006.42
2022-08-03T01:53:00.934Z,1006.46
2022-08-03T01:53:41.439Z,1006.41
2022-08-03T01:54:21.871Z,1006.42
2022-08-03T01:55:02.364Z,1006.42
2022-08-03T01:55:42.815Z,1006.41
2022-08-03T01:56:23.777Z,1006.44
2022-08-03T01:57:03.744Z,1006.42
2022-08-03T01:58:04.503Z,1006.43
2022-08-03T01:58:24.696Z,1006.43
2022-08-03T01:59:05.177Z,1006.43
2022-08-03T02:00:26.104Z,1006.43
2022-08-03T02:01:06.610Z,1006.45
2022-08-03T02:02:15.786Z,1006.44
2022-08-03T02:02:32.509Z,1006.4
2022-08-03T02:03:08.013Z,1006.4
2022-08-03T02:03:56.703Z,1006.42
2022-08-03T02:04:28.981Z,1006.41
2022-08-03T02:05:10.823Z,1006.43
2022-08-03T02:05:57.210Z,1006.39
2022-08-03T02:06:58.427Z,1006.39
2022-08-03T02:07:10.892Z,1006.4
2022-08-03T02:07:51.351Z,1006.4
2022-08-03T02:08:31.795Z,1006.39
2022-08-03T02:09:12.254Z,1006.4
2022-08-03T02:10:34.987Z,1006.42
2022-08-03T02:11:13.694Z,1006.41
2022-08-03T02:11:54.157Z,1006.4
2022-08-03T02:12:34.725Z,1006.38
2022-08-03T02:13:15.130Z,1006.37
2022-08-03T02:13:55.593Z,1006.33
2022-08-03T02:14:36.063Z,1006.36
2022-08-03T02:15:16.542Z,1006.36
2022-08-03T02:15:57.053Z,1006.34
2022-08-03T02:16:37.486Z,1006.36
2022-08-03T02:17:18.024Z,1006.36
2022-08-03T02:17:58.480Z,1006.36
2022-08-03T02:18:38.991Z,1006.36
2022-08-03T02:19:19.464Z,1006.38
2022-08-03T02:20:40.417Z,1006.36
2022-08-03T02:21:21.103Z,1006.38
2022-08-03T02:22:01.882Z,1006.37
2022-08-03T02:22:41.917Z,1006.4
2022-08-03T02:23:22.406Z,1006.42
2022-08-03T02:24:02.827Z,1006.41
2022-08-03T02:24:44.414Z,1006.34
2022-08-03T02:25:23.788Z,1006.35
2022-08-03T02:26:04.298Z,1006.37
2022-08-03T02:26:44.797Z,1006.35
2022-08-03T02:27:25.297Z,1006.4
2022-08-03T02:28:05.810Z,1006.34
2022-08-03T02:28:46.267Z,1006.39
2022-08-03T02:29:39.027Z,1006.33
2022-08-03T02:30:07.215Z,1006.34
2022-08-03T02:30:51.720Z,1006.36
2022-08-03T02:31:28.156Z,1006.34
2022-08-03T02:32:08.611Z,1006.38
2022-08-03T02:32:49.085Z,1006.3
2022-08-03T02:33:29.617Z,1006.33
2022-08-03T02:34:10.047Z,1006.35
2022-08-03T02:34:50.515Z,1006.3
2022-08-03T02:35:30.996Z,1006.33
2022-08-03T02:36:11.507Z,1006.33
2022-08-03T02:36:52.011Z,1006.35
2022-08-03T02:37:32.463Z,1006.35
2022-08-03T02:38:12.941Z,1006.33
2022-08-03T02:38:53.402Z,1006.3
2022-08-03T02:39:33.878Z,1006.33
2022-08-03T02:40:14.344Z,1006.27
2022-08-03T02:40:54.820Z,1006.3
2022-08-03T02:41:35.384Z,1006.26
2022-08-03T02:42:16.044Z,1006.29
2022-08-03T02:42:56.364Z,1006.32
2022-08-03T02:43:39.150Z,1006.29
2022-08-03T02:44:17.393Z,1006.29
2022-08-03T02:44:57.851Z,1006.27
2022-08-03T02:45:40.552Z,1006.26
2022-08-03T02:46:18.841Z,1006.33
2022-08-03T02:46:59.308Z,1006.3
2022-08-03T02:47:53.733Z,1006.35
2022-08-03T02:48:20.243Z,1006.33
2022-08-03T02:49:00.769Z,1006.3
2022-08-03T02:49:50.186Z,1006.29
2022-08-03T02:50:21.782Z,1006.33
2022-08-03T02:51:02.170Z,1006.33
2022-08-03T02:51:42.674Z,1006.31
2022-08-03T02:52:23.333Z,1006.32
2022-08-03T02:53:44.083Z,1006.34
2022-08-03T02:54:24.603Z,1006.32
2022-08-03T02:55:05.045Z,1006.34
2022-08-03T02:55:45.926Z,1006.32
2022-08-03T02:56:26.044Z,1006.33
2022-08-03T02:57:06.479Z,1006.32
2022-08-03T02:57:46.957Z,1006.29
2022-08-03T02:58:27.454Z,1006.27
2022-08-03T02:59:07.878Z,1006.29
2022-08-03T02:59:48.360Z,1006.26
2022-08-03T03:00:28.837Z,1006.26
2022-08-03T03:01:09.371Z,1006.26
2022-08-03T03:01:49.816Z,1006.28
2022-08-03T03:02:30.263Z,1006.24
2022-08-03T03:03:51.223Z,1006.24
2022-08-03T03:04:33.125Z,1006.24
2022-08-03T03:05:54.080Z,1006.22
2022-08-03T03:05:57.608Z,1006.27
2022-08-03T03:06:33.101Z,1006.28
2022-08-03T03:07:13.580Z,1006.25
2022-08-03T03:07:54.062Z,1006.28
2022-08-03T03:09:15.006Z,1006.27
2022-08-03T03:09:55.493Z,1006.26
2022-08-03T03:10:35.994Z,1006.27
2022-08-03T03:11:16.416Z,1006.28
2022-08-03T03:11:56.853Z,1006.25
2022-08-03T03:12:37.317Z,1006.27
2022-08-03T03:13:17.809Z,1006.26
2022-08-03T03:13:58.301Z,1006.32
2022-08-03T03:14:38.719Z,1006.29
2022-08-03T03:15:19.195Z,1006.3
2022-08-03T03:15:59.666Z,1006.28
2022-08-03T03:16:40.119Z,1006.32
2022-08-03T03:17:20.631Z,1006.3
2022-08-03T03:18:01.126Z,1006.3
2022-08-03T03:19:22.074Z,1006.32
2022-08-03T03:20:02.530Z,1006.3
2022-08-03T03:20:43.014Z,1006.31
2022-08-03T03:21:23.526Z,1006.28
2022-08-03T03:22:04.018Z,1006.31
2022-08-03T03:22:45.231Z,1006.31
2022-08-03T03:23:24.932Z,1006.3
2022-08-03T03:24:05.392Z,1006.31
2022-08-03T03:24:45.867Z,1006.33
2022-08-03T03:25:26.338Z,1006.33
2022-08-03T03:26:06.811Z,1006.35
2022-08-03T03:26:47.294Z,1006.36
2022-08-03T03:27:27.830Z,1006.33
2022-08-03T03:28:08.331Z,1006.33
2022-08-03T03:28:48.815Z,1006.34
2022-08-03T03:29:29.313Z,1006.36
2022-08-03T03:31:27.028Z,1006.32
2022-08-03T03:32:08.370Z,1006.33
2022-08-03T03:32:47.933Z,1006.32
2022-08-03T03:33:28.743Z,1006.31
2022-08-03T03:34:09.018Z,1006.33
2022-08-03T03:34:49.483Z,1006.3
2022-08-03T03:35:29.858Z,1006.28
2022-08-03T03:36:10.394Z,1006.27
2022-08-03T03:36:50.836Z,1006.29
2022-08-03T03:37:31.333Z,1006.26
2022-08-03T03:38:11.839Z,1006.27
2022-08-03T03:38:53.723Z,1006.28
2022-08-03T03:39:32.817Z,1006.26
2022-08-03T03:40:13.258Z,1006.27
2022-08-03T03:40:54.194Z,1006.3
2022-08-03T03:41:34.669Z,1006.33
2022-08-03T03:42:15.295Z,1006.33
2022-08-03T03:42:55.616Z,1006.32
2022-08-03T03:43:36.107Z,1006.32
2022-08-03T03:44:16.566Z,1006.32
2022-08-03T03:44:57.042Z,1006.29
2022-08-03T03:45:37.636Z,1006.33
2022-08-03T03:46:18.011Z,1006.31
2022-08-03T03:46:58.521Z,1006.33
2022-08-03T03:47:38.983Z,1006.32
2022-08-03T03:48:19.475Z,1006.35
2022-08-03T03:49:00.030Z,1006.31
2022-08-03T03:49:40.566Z,1006.31
2022-08-03T03:50:21.003Z,1006.32
2022-08-03T03:51:01.563Z,1006.26
2022-08-03T03:51:41.986Z,1006.28
2022-08-03T03:52:22.500Z,1006.31
2022-08-03T03:53:02.972Z,1006.29
2022-08-03T03:54:25.398Z,1006.29
2022-08-03T03:55:04.469Z,1006.28
2022-08-03T03:55:59.080Z,1006.28
2022-08-03T03:56:25.434Z,1006.31
2022-08-03T03:57:05.990Z,1006.33
2022-08-03T03:57:46.505Z,1006.35
2022-08-03T03:58:26.977Z,1006.34
2022-08-03T03:59:07.415Z,1006.35
2022-08-03T03:59:47.963Z,1006.35
2022-08-03T04:00:28.522Z,1006.36
2022-08-03T04:01:58.771Z,1006.39
2022-08-03T04:02:32.570Z,1006.38
2022-08-03T04:03:13.038Z,1006.4
2022-08-03T04:03:53.748Z,1006.4
2022-08-03T04:04:34.282Z,1006.42
2022-08-03T04:05:14.810Z,1006.43
2022-08-03T04:05:55.346Z,1006.39
2022-08-03T04:06:35.855Z,1006.44
2022-08-03T04:07:16.352Z,1006.43
2022-08-03T04:07:56.839Z,1006.41
2022-08-03T04:08:37.302Z,1006.38
2022-08-03T04:09:59.152Z,1006.39
2022-08-03T04:10:38.751Z,1006.38
2022-08-03T04:11:19.324Z,1006.41
2022-08-03T04:11:59.777Z,1006.38
2022-08-03T04:12:50.089Z,1006.37
2022-08-03T04:15:40.346Z,1006.38
2022-08-03T04:16:20.704Z,1006.38
2022-08-03T04:17:01.335Z,1006.37
2022-08-03T04:17:42.007Z,1006.36
2022-08-03T04:18:22.664Z,1006.38
2022-08-03T04:19:03.170Z,1006.39
2022-08-03T04:19:43.832Z,1006.39
2022-08-03T04:20:24.344Z,1006.37
2022-08-03T04:21:04.948Z,1006.4
2022-08-03T04:21:45.584Z,1006.4
2022-08-03T04:24:45.819Z,1006.42
2022-08-03T04:25:26.380Z,1006.43
2022-08-03T04:26:06.803Z,1006.44
2022-08-03T04:26:50.908Z,1006.45
2022-08-03T04:27:27.882Z,1006.43
2022-08-03T04:28:30.172Z,1006.45
2022-08-03T04:28:48.826Z,1006.46
2022-08-03T04:29:29.534Z,1006.45
2022-08-03T04:30:10.171Z,1006.46
2022-08-03T04:30:50.643Z,1006.44
2022-08-03T04:33:49.919Z,1006.48
2022-08-03T04:34:31.501Z,1006.51
2022-08-03T04:35:13.404Z,1006.48
2022-08-03T04:35:58.707Z,1006.53
2022-08-03T04:36:34.376Z,1006.5
2022-08-03T04:37:14.865Z,1006.5
2022-08-03T04:37:55.308Z,1006.51
2022-08-03T04:38:35.806Z,1006.5
2022-08-03T04:39:16.288Z,1006.51
2022-08-03T04:40:37.313Z,1006.55
2022-08-03T04:41:17.781Z,1006.56
2022-08-03T04:42:04.538Z,1006.53
2022-08-03T04:42:38.964Z,1006.56
2022-08-03T04:43:19.537Z,1006.59
2022-08-03T04:43:59.981Z,1006.54
2022-08-03T04:44:40.636Z,1006.56
2022-08-03T04:45:21.064Z,1006.55
2022-08-03T04:46:01.573Z,1006.55
2022-08-03T04:46:42.101Z,1006.54
2022-08-03T04:47:22.569Z,1006.58
2022-08-03T04:48:03.090Z,1006.54
2022-08-03T04:48:44.793Z,1006.54
2022-08-03T04:49:24.728Z,1006.59
2022-08-03T04:50:08.106Z,1006.54
2022-08-03T04:50:45.879Z,1006.55
2022-08-03T04:51:26.415Z,1006.54
2022-08-03T04:52:06.845Z,1006.54
2022-08-03T04:52:47.374Z,1006.55
2022-08-03T04:53:27.883Z,1006.55
2022-08-03T04:54:08.308Z,1006.56
2022-08-03T04:54:50.398Z,1006.57
2022-08-03T04:55:29.449Z,1006.56
2022-08-03T04:56:10.053Z,1006.59
2022-08-03T04:56:50.657Z,1006.58
2022-08-03T04:57:31.183Z,1006.6
2022-08-03T04:58:11.547Z,1006.58
2022-08-03T04:58:52.092Z,1006.64
2022-08-03T04:59:32.482Z,1006.64
2022-08-03T05:00:12.913Z,1006.55
2022-08-03T05:00:53.463Z,1006.57
2022-08-03T05:01:33.895Z,1006.52
2022-08-03T05:02:14.703Z,1006.53
2022-08-03T05:02:54.949Z,1006.56
2022-08-03T05:03:35.569Z,1006.58
2022-08-03T05:04:16.173Z,1006.55
2022-08-03T05:07:16.100Z,1006.59
2022-08-03T05:07:57.163Z,1006.6
2022-08-03T05:08:41.154Z,1006.66
2022-08-03T05:09:39.610Z,1006.68
2022-08-03T05:10:01.910Z,1006.67
2022-08-03T05:10:41.626Z,1006.68
2022-08-03T05:11:22.595Z,1006.69
2022-08-03T05:12:03.722Z,1006.7
2022-08-03T05:12:44.775Z,1006.7
2022-08-03T05:13:25.874Z,1006.69
2022-08-03T05:14:06.865Z,1006.66
2022-08-03T05:14:47.898Z,1006.66
2022-08-03T05:15:30.421Z,1006.64
2022-08-03T05:16:09.952Z,1006.66
2022-08-03T05:16:51.181Z,1006.66
2022-08-03T05:17:32.162Z,1006.65
2022-08-03T05:18:14.279Z,1006.65
2022-08-03T05:18:54.594Z,1006.67
2022-08-03T05:19:35.561Z,1006.69
2022-08-03T05:20:18.808Z,1006.68
2022-08-03T05:20:57.675Z,1006.7
2022-08-03T05:21:41.829Z,1006.76
2022-08-03T05:22:19.723Z,1006.74
2022-08-03T05:23:00.889Z,1006.71
2022-08-03T05:23:42.352Z,1006.75
2022-08-03T05:24:23.513Z,1006.8
2022-08-03T05:25:04.897Z,1006.76
2022-08-03T05:25:49.927Z,1006.79
2022-08-03T05:26:30.726Z,1006.81
2022-08-03T05:27:11.538Z,1006.78
2022-08-03T05:27:52.700Z,1006.82
2022-08-03T05:28:33.910Z,1006.83
2022-08-03T05:29:14.819Z,1006.83
2022-08-03T05:29:55.936Z,1006.83
2022-08-03T05:30:36.885Z,1006.83
2022-08-03T05:34:11.921Z,1006.82
2022-08-03T05:34:52.480Z,1006.87
2022-08-03T05:35:56.451Z,1006.83
2022-08-03T05:36:13.820Z,1006.87
2022-08-03T05:36:54.201Z,1006.86
2022-08-03T05:37:34.738Z,1006.81
2022-08-03T05:38:15.383Z,1006.82
2022-08-03T05:38:59.585Z,1006.83
2022-08-03T05:39:36.724Z,1006.81
2022-08-03T05:40:17.149Z,1006.77
2022-08-03T05:41:20.137Z,1006.78
2022-08-03T05:41:38.274Z,1006.77
2022-08-03T05:42:18.805Z,1006.76
2022-08-03T05:42:59.383Z,1006.8
2022-08-03T05:43:40.025Z,1006.81
2022-08-03T05:44:20.555Z,1006.82
2022-08-03T05:45:00.997Z,1006.82
2022-08-03T05:45:42.305Z,1006.82
2022-08-03T05:46:22.437Z,1006.83
2022-08-03T05:47:03.013Z,1006.84
2022-08-03T05:47:43.477Z,1006.83
2022-08-03T05:48:24.068Z,1006.84
2022-08-03T05:49:45.063Z,1006.81
2022-08-03T05:50:25.574Z,1006.75
2022-08-03T05:51:06.090Z,1006.77
2022-08-03T05:51:46.841Z,1006.82
2022-08-03T05:52:27.408Z,1006.82
2022-08-03T06:33:11.758Z,1006.9
2022-08-03T06:35:46.274Z,1006.91
2022-08-03T06:36:28.313Z,1006.88
2022-08-03T06:37:09.385Z,1006.89
2022-08-03T06:37:50.403Z,1006.86
2022-08-03T06:38:31.488Z,1006.87
2022-08-03T06:39:12.994Z,1006.9
2022-08-03T06:39:54.035Z,1006.84
2022-08-03T06:40:35.043Z,1006.86
2022-08-03T06:41:16.102Z,1006.87
2022-08-03T06:41:57.416Z,1006.86
2022-08-03T06:42:38.411Z,1006.84
2022-08-03T06:43:19.664Z,1006.83
2022-08-03T06:44:02.733Z,1006.84
2022-08-03T06:44:41.900Z,1006.87
2022-08-03T06:45:22.927Z,1006.88
2022-08-03T06:46:04.039Z,1006.88
2022-08-03T06:46:45.106Z,1006.87
2022-08-03T06:47:26.237Z,1006.87
2022-08-03T06:48:07.469Z,1006.86
2022-08-03T06:48:48.461Z,1006.88
2022-08-03T06:49:29.691Z,1006.86
2022-08-03T06:50:13.111Z,1006.91
2022-08-03T06:50:52.054Z,1006.85
2022-08-03T06:52:04.753Z,1006.83
2022-08-03T06:52:14.109Z,1006.84
2022-08-03T06:52:55.389Z,1006.87
2022-08-03T06:53:36.702Z,1006.89
2022-08-03T06:54:17.796Z,1006.86
2022-08-03T06:54:58.838Z,1006.89
2022-08-03T06:55:40.309Z,1006.9
2022-08-03T06:56:20.938Z,1006.9
2022-08-03T06:57:02.021Z,1006.87
2022-08-03T06:57:43.609Z,1006.85
2022-08-03T06:58:24.271Z,1006.88
2022-08-03T06:59:05.433Z,1006.84
2022-08-03T07:00:06.788Z,1006.85
2022-08-03T07:00:28.210Z,1006.89
2022-08-03T07:01:09.238Z,1006.88
2022-08-03T07:01:50.456Z,1006.87
2022-08-03T07:02:31.381Z,1006.85
2022-08-03T07:03:12.440Z,1006.85
2022-08-03T07:03:53.659Z,1006.84
2022-08-03T07:04:34.799Z,1006.83
2022-08-03T07:05:15.885Z,1006.84
2022-08-03T07:07:31.694Z,1006.8
2022-08-03T07:08:12.644Z,1006.81
2022-08-03T07:08:57.749Z,1006.85
2022-08-03T07:09:35.406Z,1006.83
2022-08-03T07:10:17.674Z,1006.81
2022-08-03T07:10:58.493Z,1006.8
2022-08-03T07:11:39.037Z,1006.82
2022-08-03T07:12:19.746Z,1006.85
2022-08-03T07:13:00.199Z,1006.83
2022-08-03T07:13:41.404Z,1006.86
2022-08-03T07:14:21.932Z,1006.88
2022-08-03T07:15:03.249Z,1006.87
2022-08-03T07:15:54.748Z,1006.89
2022-08-03T07:16:23.709Z,1006.88
2022-08-03T07:17:04.547Z,1006.87
2022-08-03T07:18:44.683Z,1006.89
2022-08-03T07:19:25.806Z,1006.91
2022-08-03T07:20:07.031Z,1006.94
2022-08-03T07:20:49.494Z,1006.85
2022-08-03T07:21:30.713Z,1006.92
2022-08-03T07:22:11.931Z,1006.9
2022-08-03T07:22:53.748Z,1006.89
2022-08-03T07:26:11.763Z,1006.88
2022-08-03T07:26:53.063Z,1006.91
2022-08-03T07:27:33.589Z,1006.91
2022-08-03T07:28:14.156Z,1006.9
2022-08-03T07:28:54.670Z,1006.88
2022-08-03T07:29:35.461Z,1006.89
2022-08-03T07:30:19.376Z,1006.88
2022-08-03T07:31:01.996Z,1006.9
2022-08-03T07:31:42.822Z,1006.91
2022-08-03T07:32:23.823Z,1006.94
2022-08-03T07:33:04.860Z,1006.93
2022-08-03T07:33:45.637Z,1006.96
2022-08-03T07:37:21.541Z,1006.92
2022-08-03T07:38:02.714Z,1006.92
2022-08-03T07:38:43.916Z,1006.94
2022-08-03T07:39:25.151Z,1006.9
2022-08-03T07:42:45.374Z,1006.88
2022-08-03T07:43:25.926Z,1006.87
2022-08-03T07:44:06.426Z,1006.87
2022-08-03T07:44:47.017Z,1006.88
2022-08-03T07:45:27.740Z,1006.87
2022-08-03T07:46:08.243Z,1006.86
2022-08-03T07:46:48.862Z,1006.86
2022-08-03T07:47:34.739Z,1006.83
2022-08-03T07:48:12.331Z,1006.86
2022-08-03T07:48:50.551Z,1006.88
2022-08-03T07:49:31.091Z,1006.88
2022-08-03T07:50:12.494Z,1006.88
2022-08-03T07:50:53.109Z,1006.86
2022-08-03T07:51:33.754Z,1006.88
2022-08-03T07:52:14.452Z,1006.87
2022-08-03T07:52:54.738Z,1006.89
2022-08-03T07:53:37.877Z,1006.87
2022-08-03T07:54:56.661Z,1006.88
2022-08-03T07:55:37.147Z,1006.9
2022-08-03T07:56:18.408Z,1006.89
2022-08-03T07:57:39.471Z,1006.87
2022-08-03T07:58:23.795Z,1006.86
2022-08-03T07:59:00.599Z,1006.91
2022-08-03T07:59:57.067Z,1006.89
2022-08-03T08:00:21.709Z,1006.85
2022-08-03T08:01:02.277Z,1006.93
2022-08-03T08:01:43.693Z,1006.88
2022-08-03T08:02:24.206Z,1006.88
2022-08-03T08:03:04.770Z,1006.86
2022-08-03T08:03:52.542Z,1006.86
2022-08-03T08:04:26.680Z,1006.87
2022-08-03T08:05:07.893Z,1006.87
2022-08-03T08:05:48.446Z,1006.85
2022-08-03T08:06:28.940Z,1006.83
2022-08-03T08:07:09.438Z,1006.83
2022-08-03T08:07:50.955Z,1006.83
2022-08-03T08:08:30.471Z,1006.84
2022-08-03T08:09:11.024Z,1006.79
2022-08-03T08:09:51.661Z,1006.8
2022-08-03T08:10:32.209Z,1006.83
2022-08-03T08:11:12.652Z,1006.83
2022-08-03T08:11:54.701Z,1006.85
2022-08-03T08:15:24.795Z,1006.85
2022-08-03T08:18:38.744Z,1006.86
2022-08-03T08:21:59.809Z,1006.87
2022-08-03T08:22:33.917Z,1006.85
2022-08-03T08:23:38.088Z,1006.84
2022-08-03T08:23:57.209Z,1006.86
2022-08-03T08:24:35.403Z,1006.86
2022-08-03T08:25:57.419Z,1006.85
2022-08-03T08:26:38.000Z,1006.87
2022-08-03T08:27:19.513Z,1006.88
2022-08-03T08:28:22.047Z,1006.88
2022-08-03T08:28:40.562Z,1006.9
2022-08-03T08:29:21.713Z,1006.88
2022-08-03T08:30:08.751Z,1006.88
2022-08-03T08:30:42.688Z,1006.85
2022-08-03T08:31:23.219Z,1006.89
2022-08-03T08:32:03.715Z,1006.86
2022-08-03T08:32:44.349Z,1006.88
2022-08-03T08:33:25.798Z,1006.89
2022-08-03T08:34:05.348Z,1006.86
2022-08-03T08:34:49.612Z,1006.87
2022-08-03T08:35:30.866Z,1006.85
2022-08-03T08:36:15.158Z,1006.85
2022-08-03T08:36:52.589Z,1006.83
2022-08-03T08:37:33.812Z,1006.82
2022-08-03T08:38:14.391Z,1006.8
2022-08-03T08:38:54.976Z,1006.83
2022-08-03T08:39:35.402Z,1006.8
2022-08-03T08:40:15.893Z,1006.77
2022-08-03T08:40:56.404Z,1006.81
2022-08-03T08:41:37.032Z,1006.8
2022-08-03T08:42:17.767Z,1006.83
2022-08-03T08:42:59.149Z,1006.79
2022-08-03T08:46:34.018Z,1006.8
2022-08-03T08:47:15.904Z,1006.8
2022-08-03T08:48:00.975Z,1006.82
2022-08-03T08:48:37.801Z,1006.79
2022-08-03T08:49:19.476Z,1006.8
2022-08-03T08:50:09.585Z,1006.78
2022-08-03T08:50:40.538Z,1006.76
2022-08-03T08:51:21.095Z,1006.82
2022-08-03T08:52:02.377Z,1006.8
2022-08-03T08:52:42.168Z,1006.79
2022-08-03T08:53:27.143Z,1006.77
2022-08-03T08:54:03.357Z,1006.83
2022-08-03T08:54:44.066Z,1006.82
2022-08-03T08:55:24.603Z,1006.8
2022-08-03T08:56:05.140Z,1006.79
2022-08-03T08:56:45.829Z,1006.77
2022-08-03T08:57:41.762Z,1006.78
2022-08-03T08:58:06.757Z,1006.79
2022-08-03T08:58:47.340Z,1006.8
2022-08-03T08:59:27.863Z,1006.77
2022-08-03T09:00:08.324Z,1006.75
2022-08-03T09:00:48.901Z,1006.77
2022-08-03T09:01:29.424Z,1006.76
2022-08-03T09:02:09.942Z,1006.75
2022-08-03T09:02:50.452Z,1006.74
2022-08-03T09:03:31.152Z,1006.78
2022-08-03T09:04:11.501Z,1006.75
2022-08-03T09:04:51.960Z,1006.73
2022-08-03T09:05:54.798Z,1006.73
2022-08-03T09:06:13.921Z,1006.73
2022-08-03T09:07:35.011Z,1006.69
2022-08-03T09:08:15.534Z,1006.71
2022-08-03T09:08:57.662Z,1006.74
2022-08-03T09:10:08.265Z,1006.7
2022-08-03T09:10:18.696Z,1006.71
2022-08-03T09:10:59.301Z,1006.68
2022-08-03T09:11:52.626Z,1006.72
2022-08-03T09:12:40.796Z,1006.71
2022-08-03T09:13:01.533Z,1006.71
2022-08-03T09:13:41.993Z,1006.73
2022-08-03T09:14:33.635Z,1006.71
2022-08-03T09:15:16.247Z,1006.7
2022-08-03T09:15:51.262Z,1006.72
2022-08-03T09:16:24.153Z,1006.75
2022-08-03T09:17:04.663Z,1006.74
2022-08-03T09:17:48.922Z,1006.76
2022-08-03T09:20:03.331Z,1006.77
2022-08-03T09:20:41.202Z,1006.8
2022-08-03T09:21:32.740Z,1006.81
2022-08-03T09:22:05.982Z,1006.82
2022-08-03T09:22:47.075Z,1006.78
2022-08-03T09:23:59.416Z,1006.77
2022-08-03T09:24:20.848Z,1006.77
2022-08-03T09:25:14.963Z,1006.83
2022-08-03T09:25:37.030Z,1006.8
2022-08-03T09:26:17.699Z,1006.76
2022-08-03T09:26:58.209Z,1006.8
2022-08-03T09:27:38.806Z,1006.77
2022-08-03T09:28:33.752Z,1006.74
2022-08-03T09:29:04.830Z,1006.75
2022-08-03T09:29:40.552Z,1006.79
2022-08-03T09:30:33.960Z,1006.81
2022-08-03T09:31:02.743Z,1006.83
2022-08-03T09:31:44.152Z,1006.77
2022-08-03T09:32:23.914Z,1006.78
2022-08-03T09:33:04.539Z,1006.77
2022-08-03T09:33:45.111Z,1006.75
2022-08-03T09:34:25.642Z,1006.76
2022-08-03T09:35:06.283Z,1006.78
2022-08-03T09:35:54.943Z,1006.72
2022-08-03T09:36:27.510Z,1006.74
2022-08-03T09:37:08.951Z,1006.74
2022-08-03T09:38:12.435Z,1006.72
2022-08-03T09:38:29.676Z,1006.72
2022-08-03T09:39:10.300Z,1006.69
2022-08-03T09:39:51.154Z,1006.71
2022-08-03T09:40:31.811Z,1006.71
2022-08-03T09:41:12.514Z,1006.66
2022-08-03T09:41:53.118Z,1006.7
2022-08-03T09:42:34.459Z,1006.67
2022-08-03T09:43:14.534Z,1006.68
2022-08-03T09:43:54.985Z,1006.69
2022-08-03T09:46:54.088Z,1006.65
2022-08-03T09:47:34.696Z,1006.69
2022-08-03T09:48:15.181Z,1006.68
2022-08-03T09:48:55.821Z,1006.65
2022-08-03T09:49:36.373Z,1006.65
2022-08-03T09:50:16.799Z,1006.62
2022-08-03T09:51:12.648Z,1006.61
2022-08-03T09:52:30.165Z,1006.6
2022-08-03T09:52:33.337Z,1006.59
2022-08-03T09:52:59.676Z,1006.62
2022-08-03T09:53:40.185Z,1006.61
2022-08-03T09:54:20.817Z,1006.6
2022-08-03T09:55:01.292Z,1006.59
2022-08-03T09:56:05.232Z,1006.59
2022-08-03T09:56:32.607Z,1006.63
2022-08-03T09:57:03.097Z,1006.59
2022-08-03T09:57:43.698Z,1006.58
2022-08-03T09:58:24.317Z,1006.6
2022-08-03T09:59:04.794Z,1006.55
2022-08-03T09:59:45.304Z,1006.56
2022-08-03T10:00:25.936Z,1006.58
2022-08-03T10:01:06.482Z,1006.55
2022-08-03T10:01:46.955Z,1006.58
2022-08-03T10:02:27.381Z,1006.56
2022-08-03T10:03:07.942Z,1006.53
2022-08-03T10:04:02.855Z,1006.53
2022-08-03T10:04:29.726Z,1006.6
2022-08-03T10:05:10.253Z,1006.57
2022-08-03T10:05:54.935Z,1006.59
2022-08-03T10:08:20.601Z,1006.53
2022-08-03T10:09:01.620Z,1006.59
2022-08-03T10:09:42.671Z,1006.57
2022-08-03T10:10:29.311Z,1006.54
2022-08-03T10:11:05.688Z,1006.53
2022-08-03T10:11:46.812Z,1006.55
2022-08-03T10:12:27.756Z,1006.49
2022-08-03T10:13:08.795Z,1006.52
2022-08-03T10:15:06.959Z,1006.51
2022-08-03T10:16:20.996Z,1006.43
2022-08-03T10:16:27.981Z,1006.46
2022-08-03T10:17:08.502Z,1006.48
2022-08-03T10:17:49.011Z,1006.46
2022-08-03T10:18:29.598Z,1006.47
2022-08-03T10:19:10.045Z,1006.44
2022-08-03T10:19:50.704Z,1006.44